createdAt,value
2018-11-20T00:01:15.717Z,73.30
2018-11-20T00:04:13.434Z,73.30
2018-11-20T00:07:03.880Z,73.40
2018-11-20T00:09:54.992Z,73.50
2018-11-20T00:12:55.425Z,73.10
2018-11-20T00:16:02.104Z,73.90
2018-11-20T00:18:53.620Z,73.90
2018-11-20T00:21:43.608Z,73.30
2018-11-20T00:24:35.438Z,74.00
2018-11-20T00:27:26.035Z,74.00
2018-11-20T00:30:16.740Z,75.00
2018-11-20T00:33:14.102Z,74.40
2018-11-20T00:35:55.995Z,74.30
2018-11-20T00:38:52.857Z,73.90
2018-11-20T00:41:59.827Z,74.60
2018-11-20T00:44:57.905Z,74.70
2018-11-20T00:47:46.216Z,75.00
2018-11-20T00:50:29.794Z,75.10
2018-11-20T00:53:18.645Z,75.20
2018-11-20T00:57:11.300Z,75.50
2018-11-20T01:00:11.629Z,75.30
2018-11-20T01:02:58.095Z,75.30
2018-11-20T01:05:39.283Z,75.20
2018-11-20T01:08:43.601Z,75.10
2018-11-20T01:11:33.005Z,75.20
2018-11-20T01:14:25.067Z,75.20
2018-11-20T01:17:23.116Z,75.50
2018-11-20T01:20:13.718Z,75.50
2018-11-20T01:23:00.738Z,75.50
2018-11-20T01:25:50.822Z,75.40
2018-11-20T01:28:40.912Z,75.30
2018-11-20T01:31:32.510Z,75.20
2018-11-20T01:34:22.215Z,75.20
2018-11-20T01:37:22.956Z,75.10
2018-11-20T01:40:14.342Z,75.80
2018-11-20T01:43:08.439Z,74.80
2018-11-20T01:45:58.821Z,74.80
2018-11-20T01:48:50.891Z,74.70
2018-11-20T01:51:36.670Z,74.60
2018-11-20T01:54:40.177Z,74.70
2018-11-20T01:57:30.471Z,75.20
2018-11-20T02:00:22.300Z,75.00
2018-11-20T02:03:11.874Z,75.90
2018-11-20T02:06:03.397Z,75.30
2018-11-20T02:09:13.864Z,75.50
2018-11-20T02:12:08.226Z,75.60
2018-11-20T02:15:00.089Z,75.90
2018-11-20T02:18:09.013Z,76.00
2018-11-20T02:20:58.589Z,76.30
2018-11-20T02:23:52.773Z,76.40
2018-11-20T02:26:36.688Z,76.60
2018-11-20T02:29:43.294Z,76.50
2018-11-20T02:32:35.635Z,76.50
2018-11-20T02:35:20.500Z,76.70
2018-11-20T02:38:11.408Z,76.70
2018-11-20T02:41:09.036Z,76.80
2018-11-20T02:44:00.968Z,76.80
2018-11-20T02:46:51.310Z,76.70
2018-11-20T02:49:41.284Z,76.70
2018-11-20T02:52:28.473Z,76.80
2018-11-20T02:55:18.187Z,76.80
2018-11-20T02:58:21.895Z,76.80
2018-11-20T03:01:04.466Z,77.20
2018-11-20T03:03:54.420Z,77.10
2018-11-20T03:06:44.275Z,76.90
2018-11-20T03:09:24.293Z,77.10
2018-11-20T03:12:14.521Z,76.80
2018-11-20T03:15:13.313Z,76.70
2018-11-20T03:18:20.092Z,76.70
2018-11-20T03:21:09.667Z,76.80
2018-11-20T03:23:59.551Z,76.90
2018-11-20T03:26:47.715Z,76.80
2018-11-20T03:30:35.751Z,76.40
2018-11-20T03:33:18.663Z,77.10
2018-11-20T03:36:08.596Z,77.20
2018-11-20T03:38:59.354Z,77.40
2018-11-20T03:41:52.886Z,77.50
2018-11-20T03:44:56.657Z,78.00
2018-11-20T03:47:48.174Z,77.60
2018-11-20T03:50:37.933Z,77.70
2018-11-20T03:53:27.814Z,77.80
2018-11-20T03:56:27.943Z,78.60
2018-11-20T03:59:18.135Z,77.80
2018-11-20T04:02:12.464Z,77.80
2018-11-20T04:05:03.602Z,77.70
2018-11-20T04:07:57.406Z,77.90
2018-11-20T04:10:52.310Z,78.10
2018-11-20T04:13:46.725Z,78.10
2018-11-20T04:16:49.802Z,78.00
2018-11-20T04:19:40.084Z,78.10
2018-11-20T04:22:34.758Z,79.00
2018-11-20T04:25:38.593Z,79.10
2018-11-20T04:28:32.777Z,78.20
2018-11-20T04:32:09.845Z,78.30
2018-11-20T04:35:01.493Z,78.50
2018-11-20T04:37:56.413Z,78.60
2018-11-20T04:40:50.847Z,79.20
2018-11-20T04:43:47.835Z,78.70
2018-11-20T04:46:42.234Z,78.80
2018-11-20T04:49:33.031Z,78.90
2018-11-20T04:52:15.968Z,78.70
2018-11-20T04:55:13.411Z,78.80
2018-11-20T04:58:04.116Z,78.90
2018-11-20T05:01:01.544Z,78.80
2018-11-20T05:03:53.254Z,78.80
2018-11-20T05:06:51.496Z,78.80
2018-11-20T05:09:45.985Z,79.00
2018-11-20T05:12:35.753Z,79.00
2018-11-20T05:15:25.638Z,79.20
2018-11-20T05:18:32.011Z,79.00
2018-11-20T05:21:37.763Z,79.20
2018-11-20T05:24:38.099Z,79.30
2018-11-20T05:27:27.978Z,79.30
2018-11-20T05:30:19.906Z,79.30
2018-11-20T05:33:11.432Z,79.30
2018-11-20T05:36:01.724Z,79.20
2018-11-20T05:38:52.152Z,80.00
2018-11-20T05:41:42.310Z,79.20
2018-11-20T05:44:30.555Z,79.70
2018-11-20T05:47:21.464Z,79.60
2018-11-20T05:50:18.673Z,79.40
2018-11-20T05:53:00.585Z,79.30
2018-11-20T05:55:57.258Z,79.30
2018-11-20T05:58:47.724Z,79.40
2018-11-20T06:01:38.462Z,79.60
2018-11-20T06:04:38.868Z,79.60
2018-11-20T06:07:45.366Z,80.70
2018-11-20T06:10:52.453Z,80.00
2018-11-20T06:13:49.911Z,80.10
2018-11-20T06:16:34.030Z,80.60
2018-11-20T06:19:34.695Z,80.00
2018-11-20T06:22:25.094Z,80.20
2018-11-20T06:25:18.971Z,80.80
2018-11-20T06:28:13.154Z,81.10
2018-11-20T06:31:20.450Z,80.80
2018-11-20T06:34:08.687Z,80.00
2018-11-20T06:36:59.779Z,79.80
2018-11-20T06:39:50.509Z,79.80
2018-11-20T06:42:53.396Z,80.30
2018-11-20T06:45:48.505Z,79.60
2018-11-20T06:48:46.476Z,79.10
2018-11-20T06:51:46.757Z,79.70
2018-11-20T06:54:39.317Z,79.10
2018-11-20T06:57:25.461Z,79.20
2018-11-20T07:00:28.128Z,79.10
2018-11-20T07:03:21.906Z,79.30
2018-11-20T07:06:13.630Z,79.30
2018-11-20T07:09:03.413Z,79.10
2018-11-20T07:11:53.807Z,79.30
2018-11-20T07:14:48.400Z,79.30
2018-11-20T07:17:51.188Z,79.40
2018-11-20T07:20:41.278Z,79.60
2018-11-20T07:23:51.233Z,79.40
2018-11-20T07:26:42.344Z,79.40
2018-11-20T07:29:51.671Z,79.40
2018-11-20T07:32:43.772Z,79.40
2018-11-20T07:35:38.256Z,79.30
2018-11-20T07:38:28.257Z,79.40
2018-11-20T07:41:13.551Z,79.30
2018-11-20T07:44:20.660Z,79.60
2018-11-20T07:47:11.056Z,79.30
2018-11-20T07:50:01.458Z,79.10
2018-11-20T07:52:56.153Z,79.00
2018-11-20T07:56:01.881Z,78.90
2018-11-20T07:58:51.483Z,79.00
2018-11-20T08:01:48.446Z,79.10
2018-11-20T08:04:38.619Z,79.20
2018-11-20T08:07:32.498Z,78.90
2018-11-20T08:10:26.794Z,78.50
2018-11-20T08:13:34.079Z,78.80
2018-11-20T08:16:23.860Z,79.00
2018-11-20T08:19:27.771Z,79.00
2018-11-20T08:22:17.654Z,79.30
2018-11-20T08:25:09.201Z,80.70
2018-11-20T08:28:00.394Z,81.20
2018-11-20T08:30:51.942Z,81.90
2018-11-20T08:33:43.083Z,82.80
2018-11-20T08:36:32.914Z,84.10
2018-11-20T08:39:32.318Z,85.10
2018-11-20T08:42:39.098Z,85.90
2018-11-20T08:45:28.983Z,86.70
2018-11-20T08:48:29.359Z,88.50
2018-11-20T08:51:19.811Z,89.70
2018-11-20T08:54:16.247Z,90.30
2018-11-20T08:57:23.028Z,90.70
2018-11-20T09:00:24.072Z,91.00
2018-11-20T09:03:13.702Z,91.30
2018-11-20T09:05:58.208Z,91.50
2018-11-20T09:08:49.219Z,91.70
2018-11-20T09:11:52.724Z,91.90
2018-11-20T09:14:50.181Z,92.10
2018-11-20T09:17:48.624Z,92.20
2018-11-20T09:20:40.086Z,92.20
2018-11-20T09:23:34.089Z,92.40
2018-11-20T09:26:43.712Z,92.50
2018-11-20T09:29:50.801Z,92.80
2018-11-20T09:32:53.842Z,92.90
2018-11-20T09:35:51.452Z,92.90
2018-11-20T09:38:58.033Z,92.90
2018-11-20T09:41:48.429Z,93.10
2018-11-20T09:44:40.434Z,93.10
2018-11-20T09:47:49.904Z,92.90
2018-11-20T09:50:43.961Z,92.80
2018-11-20T09:53:34.384Z,92.60
2018-11-20T09:56:43.911Z,93.00
2018-11-20T09:59:41.482Z,92.20
2018-11-20T10:02:30.656Z,92.00
2018-11-20T10:05:31.093Z,90.70
2018-11-20T10:08:11.310Z,89.30
2018-11-20T10:11:08.402Z,88.90
2018-11-20T10:14:05.783Z,86.50
2018-11-20T10:16:57.994Z,85.90
2018-11-20T10:19:59.062Z,84.00
2018-11-20T10:22:59.687Z,86.40
2018-11-20T10:26:02.788Z,86.70
2018-11-20T10:28:57.236Z,88.30
2018-11-20T10:31:47.146Z,88.40
2018-11-20T10:34:34.028Z,89.40
2018-11-20T10:37:28.043Z,89.70
2018-11-20T10:40:18.492Z,90.30
2018-11-20T10:43:12.825Z,90.30
2018-11-20T10:46:22.891Z,90.40
2018-11-20T10:49:13.997Z,90.90
2018-11-20T10:51:58.110Z,90.50
2018-11-20T10:54:51.821Z,91.10
2018-11-20T10:57:42.725Z,90.70
2018-11-20T11:00:32.505Z,90.90
2018-11-20T11:03:22.285Z,90.80
2018-11-20T11:06:17.162Z,91.00
2018-11-20T11:09:24.074Z,90.80
2018-11-20T11:12:22.597Z,90.90
2018-11-20T11:15:08.448Z,90.70
2018-11-20T11:17:58.125Z,91.00
2018-11-20T11:21:04.973Z,90.80
2018-11-20T11:24:02.471Z,90.80
2018-11-20T11:27:00.037Z,90.70
2018-11-20T11:29:49.818Z,90.80
2018-11-20T11:32:44.309Z,90.70
2018-11-20T11:35:39.027Z,90.50
2018-11-20T11:38:30.834Z,91.00
2018-11-20T11:41:20.512Z,90.50
2018-11-20T11:44:17.888Z,90.70
2018-11-20T11:47:08.267Z,90.70
2018-11-20T11:49:58.560Z,90.80
2018-11-20T11:52:49.262Z,90.40
2018-11-20T11:55:39.248Z,90.80
2018-11-20T11:58:36.486Z,90.30
2018-11-20T12:04:22.416Z,90.40
2018-11-20T12:07:08.579Z,91.00
2018-11-20T12:10:11.269Z,91.00
2018-11-20T12:13:05.901Z,90.70
2018-11-20T12:15:59.863Z,90.50
2018-11-20T12:18:50.163Z,90.30
2018-11-20T12:21:35.849Z,90.60
2018-11-20T12:24:27.316Z,90.60
2018-11-20T12:27:17.162Z,90.40
2018-11-20T12:30:17.584Z,90.40
2018-11-20T12:33:12.194Z,90.60
2018-11-20T12:36:05.908Z,90.50
2018-11-20T12:38:57.045Z,90.30
2018-11-20T12:41:49.203Z,90.00
2018-11-20T12:44:41.238Z,89.70
2018-11-20T12:47:30.366Z,89.40
2018-11-20T12:50:28.088Z,90.00
2018-11-20T12:53:25.044Z,89.20
2018-11-20T12:56:31.477Z,89.70
2018-11-20T12:59:23.288Z,89.40
2018-11-20T13:02:21.056Z,89.80
2018-11-20T13:05:11.181Z,89.40
2018-11-20T13:08:02.905Z,89.40
2018-11-20T13:10:53.099Z,89.00
2018-11-20T13:13:44.109Z,89.40
2018-11-20T13:16:34.913Z,88.50
2018-11-20T13:19:27.427Z,88.20
2018-11-20T13:22:26.969Z,87.70
2018-11-20T13:25:30.983Z,88.20
2018-11-20T13:28:25.352Z,88.80
2018-11-20T13:31:25.908Z,88.30
2018-11-20T13:34:29.412Z,88.10
2018-11-20T13:37:19.811Z,88.80
2018-11-20T13:40:09.794Z,87.50
2018-11-20T13:42:59.170Z,88.20
2018-11-20T13:49:21.735Z,87.70
2018-11-20T13:52:04.412Z,87.50
2018-11-20T13:55:05.088Z,88.10
2018-11-20T13:57:55.377Z,88.30
2018-11-20T14:00:55.573Z,88.80
2018-11-20T14:03:43.148Z,88.20
2018-11-20T14:06:38.058Z,87.90
2018-11-20T14:09:33.429Z,87.30
2018-11-20T14:12:28.148Z,87.80
2018-11-20T14:15:24.992Z,87.60
2018-11-20T14:18:16.821Z,88.00
2018-11-20T14:21:06.912Z,88.10
2018-11-20T14:24:02.240Z,86.40
2018-11-20T14:26:53.743Z,87.00
2018-11-20T14:29:43.628Z,86.80
2018-11-20T14:32:47.137Z,86.80
2018-11-20T14:35:41.731Z,86.90
2018-11-20T14:38:41.879Z,86.90
2018-11-20T14:41:30.016Z,86.90
2018-11-20T14:44:10.421Z,87.30
2018-11-20T14:47:09.655Z,87.40
2018-11-20T14:50:16.229Z,88.20
2018-11-20T14:53:08.469Z,88.00
2018-11-20T14:56:05.504Z,87.70
2018-11-20T14:58:51.989Z,87.80
2018-11-20T15:01:35.049Z,87.60
2018-11-20T15:04:26.672Z,88.00
2018-11-20T15:07:21.724Z,87.70
2018-11-20T15:10:21.701Z,87.60
2018-11-20T15:13:22.560Z,87.60
2018-11-20T15:16:09.252Z,87.80
2018-11-20T15:19:19.011Z,87.80
2018-11-20T15:22:09.291Z,88.00
2018-11-20T15:25:00.405Z,88.20
2018-11-20T15:27:46.877Z,88.30
2018-11-20T15:30:53.076Z,88.40
2018-11-20T15:33:41.728Z,88.80
2018-11-20T15:36:31.714Z,88.70
2018-11-20T15:39:22.112Z,89.10
2018-11-20T15:42:16.671Z,88.70
2018-11-20T15:45:20.330Z,88.60
2018-11-20T15:48:20.845Z,88.60
2018-11-20T15:51:24.564Z,88.50
2018-11-20T15:54:08.907Z,88.60
2018-11-20T15:56:59.609Z,89.20
2018-11-20T15:59:55.903Z,89.30
2018-11-20T16:02:49.819Z,89.70
2018-11-20T16:05:40.115Z,89.80
2018-11-20T16:08:43.410Z,90.00
2018-11-20T16:11:27.432Z,90.00
2018-11-20T16:14:21.645Z,90.00
2018-11-20T16:17:17.346Z,90.20
2018-11-20T16:20:10.832Z,90.40
2018-11-20T16:23:02.835Z,90.80
2018-11-20T16:25:53.437Z,90.80
2018-11-20T16:28:50.790Z,90.70
2018-11-20T16:31:40.404Z,90.80
2018-11-20T16:34:31.485Z,90.80
2018-11-20T16:37:21.194Z,91.20
2018-11-20T16:40:10.877Z,91.10
2018-11-20T16:43:23.847Z,91.10
2018-11-20T16:46:20.858Z,91.20
2018-11-20T16:49:18.362Z,91.20
2018-11-20T16:52:03.382Z,91.10
2018-11-20T16:55:03.712Z,91.10
2018-11-20T16:58:38.344Z,91.30
2018-11-20T17:01:27.306Z,91.30
2018-11-20T17:04:16.574Z,91.30
2018-11-20T17:07:05.744Z,91.20
2018-11-20T17:10:02.283Z,91.20
2018-11-20T17:12:51.242Z,91.20
2018-11-20T17:15:43.178Z,91.10
2018-11-20T17:18:32.241Z,91.10
2018-11-20T17:21:21.919Z,91.30
2018-11-20T17:24:15.092Z,91.60
2018-11-20T17:27:13.979Z,91.60
2018-11-20T17:30:13.175Z,91.60
2018-11-20T17:33:03.878Z,91.60
2018-11-20T17:36:05.516Z,91.40
2018-11-20T17:38:50.176Z,91.50
2018-11-20T17:41:43.391Z,91.50
2018-11-20T17:44:53.440Z,91.40
2018-11-20T17:47:45.046Z,91.40
2018-11-20T17:50:41.171Z,91.50
2018-11-20T17:53:33.307Z,91.60
2018-11-20T17:56:30.030Z,91.40
2018-11-20T17:59:33.762Z,91.40
2018-11-20T18:02:44.227Z,91.30
2018-11-20T18:05:52.625Z,91.30
2018-11-20T18:09:00.452Z,91.30
2018-11-20T18:12:06.338Z,91.30
2018-11-20T18:14:55.170Z,91.30
2018-11-20T18:17:47.860Z,91.30
2018-11-20T18:20:35.652Z,91.10
2018-11-20T18:23:23.492Z,91.40
2018-11-20T18:26:26.117Z,91.50
2018-11-20T18:29:28.613Z,91.40
2018-11-20T18:32:17.920Z,92.00
2018-11-20T18:35:03.085Z,91.80
2018-11-20T18:38:05.425Z,91.60
2018-11-20T18:40:55.047Z,91.60
2018-11-20T18:43:48.286Z,91.60
2018-11-20T18:46:47.513Z,91.50
2018-11-20T18:49:47.108Z,91.60
2018-11-20T18:52:34.960Z,91.20
2018-11-20T18:55:22.464Z,91.40
2018-11-20T18:58:15.853Z,91.40
2018-11-20T19:01:21.407Z,91.50
2018-11-20T19:04:23.986Z,91.50
2018-11-20T19:07:17.349Z,91.50
2018-11-20T19:10:10.636Z,91.50
2018-11-20T19:12:59.578Z,91.50
2018-11-20T19:15:49.973Z,91.60
2018-11-20T19:18:28.459Z,91.70
2018-11-20T19:21:20.901Z,91.90
2018-11-20T19:24:11.740Z,91.80
2018-11-20T19:27:07.623Z,91.70
2018-11-20T19:29:56.830Z,91.80
2018-11-20T19:32:46.202Z,91.70
2018-11-20T19:35:37.494Z,91.60
2018-11-20T19:38:24.331Z,91.60
2018-11-20T19:41:13.192Z,91.60
2018-11-20T19:44:02.154Z,91.60
2018-11-20T19:46:55.416Z,91.80
2018-11-20T19:49:43.969Z,91.70
2018-11-20T19:52:49.315Z,91.80
2018-11-20T19:55:44.424Z,91.70
2018-11-20T19:58:33.864Z,91.80
2018-11-20T20:01:42.725Z,91.60
2018-11-20T20:04:33.218Z,91.70
2018-11-20T20:07:22.494Z,91.90
2018-11-20T20:10:17.656Z,91.70
2018-11-20T20:12:55.911Z,91.90
2018-11-20T20:15:44.874Z,91.70
2018-11-20T20:18:34.733Z,91.70
2018-11-20T20:21:23.821Z,91.70
2018-11-20T20:24:23.536Z,91.70
2018-11-20T20:27:12.597Z,91.70
2018-11-20T20:30:01.461Z,91.90
2018-11-20T20:32:50.521Z,91.80
2018-11-20T20:35:56.275Z,91.80
2018-11-20T20:38:45.444Z,91.70
2018-11-20T20:41:41.984Z,91.70
2018-11-20T20:44:30.845Z,91.80
2018-11-20T20:47:27.281Z,91.70
2018-11-20T20:50:32.524Z,91.70
2018-11-20T20:53:25.724Z,91.80
2018-11-20T20:56:14.956Z,91.70
2018-11-20T20:58:57.160Z,91.80
2018-11-20T21:01:41.897Z,91.80
2018-11-20T21:04:33.211Z,92.00
2018-11-20T21:07:22.304Z,92.00
2018-11-20T21:10:31.132Z,91.90
2018-11-20T21:13:19.685Z,92.00
2018-11-20T21:16:00.482Z,91.80
2018-11-20T21:18:50.426Z,91.90
2018-11-20T21:21:38.174Z,91.90
2018-11-20T21:24:20.041Z,91.80
2018-11-20T21:27:22.678Z,91.90
2018-11-20T21:30:09.229Z,92.00
2018-11-20T21:33:14.913Z,92.00
2018-11-20T21:36:11.018Z,91.90
2018-11-20T21:39:00.210Z,91.90
2018-11-20T21:41:48.937Z,91.90
2018-11-20T21:44:42.124Z,91.90
2018-11-20T21:47:30.783Z,91.90
2018-11-20T21:50:30.084Z,92.10
2018-11-20T21:53:29.079Z,92.00
2018-11-20T21:56:25.318Z,91.70
2018-11-20T21:59:06.870Z,91.80
2018-11-20T22:02:00.831Z,92.40
2018-11-20T22:04:50.462Z,91.90
2018-11-20T22:07:43.275Z,91.80
2018-11-20T22:10:39.569Z,92.00
2018-11-20T22:13:28.408Z,91.90
2018-11-20T22:16:16.856Z,91.90
2018-11-20T22:19:21.998Z,92.00
2018-11-20T22:22:30.927Z,91.90
2018-11-20T22:25:25.113Z,92.20
2018-11-20T22:28:13.874Z,92.20
2018-11-20T22:31:12.868Z,92.30
2018-11-20T22:34:01.318Z,92.40
2018-11-20T22:36:55.091Z,92.60
2018-11-20T22:39:46.872Z,92.40
2018-11-20T22:42:36.910Z,92.30
2018-11-20T22:45:45.850Z,92.60
2018-11-20T22:48:31.425Z,92.50
2018-11-20T22:51:27.756Z,92.80
2018-11-20T22:54:29.931Z,92.50
2018-11-20T22:57:06.267Z,92.30
2018-11-20T22:59:55.362Z,92.50
2018-11-20T23:02:49.036Z,92.50
2018-11-20T23:05:48.772Z,92.40
2018-11-20T23:08:19.798Z,92.50
2018-11-20T23:10:51.365Z,92.30
2018-11-20T23:13:22.831Z,92.30
2018-11-20T23:15:54.178Z,92.40
2018-11-20T23:18:25.717Z,92.40
2018-11-20T23:20:57.091Z,92.60
2018-11-20T23:23:28.614Z,92.70
2018-11-20T23:26:00.401Z,92.60
2018-11-20T23:28:32.581Z,92.90
2018-11-20T23:31:04.003Z,93.20
2018-11-20T23:33:35.768Z,93.20
2018-11-20T23:36:07.364Z,93.10
2018-11-20T23:38:39.015Z,93.00
2018-11-20T23:41:10.438Z,93.10
2018-11-20T23:43:41.450Z,93.10
2018-11-20T23:46:13.319Z,93.00
2018-11-20T23:48:45.020Z,93.00
2018-11-20T23:51:16.767Z,93.00
2018-11-20T23:53:48.618Z,92.90
2018-11-20T23:56:19.646Z,92.90
2018-11-20T23:58:51.334Z,92.90
